createdAt,value
2016-08-11T00:00:32.736Z,0
2016-08-11T00:01:33.229Z,0
2016-08-11T00:02:33.766Z,0
2016-08-11T00:03:34.307Z,0
2016-08-11T00:04:34.840Z,0
2016-08-11T00:05:35.491Z,0
2016-08-11T00:06:35.879Z,0
2016-08-11T00:07:36.414Z,0
2016-08-11T00:08:36.947Z,0
2016-08-11T00:09:37.485Z,0
2016-08-11T00:10:37.992Z,0
2016-08-11T00:11:38.513Z,0
2016-08-11T00:12:39.054Z,0
2016-08-11T00:13:39.588Z,0
2016-08-11T00:14:40.105Z,0
2016-08-11T00:15:40.656Z,0
2016-08-11T00:16:41.155Z,0
2016-08-11T00:17:41.684Z,0
2016-08-11T00:18:42.275Z,0
2016-08-11T00:20:43.296Z,0
2016-08-11T00:21:43.811Z,0
2016-08-11T00:22:44.339Z,0
2016-08-11T00:23:44.997Z,0
2016-08-11T00:24:45.381Z,0
2016-08-11T00:25:46.050Z,0
2016-08-11T00:26:46.445Z,0
2016-08-11T00:27:47.107Z,0
2016-08-11T00:28:47.500Z,0
2016-08-11T00:29:48.026Z,0
2016-08-11T00:30:48.723Z,0
2016-08-11T00:31:49.111Z,0
2016-08-11T00:32:49.773Z,0
2016-08-11T00:33:50.161Z,0
2016-08-11T00:34:50.687Z,0
2016-08-11T00:35:51.212Z,0
2016-08-11T00:36:51.892Z,0
2016-08-11T00:37:52.266Z,0
2016-08-11T00:38:52.804Z,0
2016-08-11T00:39:53.341Z,0
2016-08-11T00:40:53.853Z,0
2016-08-11T00:41:54.353Z,0
2016-08-11T00:42:55.028Z,0
2016-08-11T00:43:55.408Z,0
2016-08-11T00:44:55.937Z,0
2016-08-11T00:45:56.498Z,0
2016-08-11T00:46:57.015Z,0
2016-08-11T00:47:57.586Z,0
2016-08-11T00:48:58.084Z,0
2016-08-11T00:49:58.599Z,0
2016-08-11T00:50:59.146Z,0
2016-08-11T00:51:59.670Z,0
2016-08-11T00:53:00.219Z,0
2016-08-11T00:54:00.725Z,0
2016-08-11T00:55:01.252Z,0
2016-08-11T00:56:01.916Z,0
2016-08-11T00:57:02.316Z,0
2016-08-11T00:58:02.827Z,0
2016-08-11T00:59:03.382Z,0
2016-08-11T01:00:03.884Z,0
2016-08-11T01:01:04.405Z,0
2016-08-11T01:02:04.965Z,0
2016-08-11T01:03:05.625Z,0
2016-08-11T01:04:06.146Z,0
2016-08-11T01:05:06.531Z,0
2016-08-11T01:06:07.058Z,0
2016-08-11T01:07:07.589Z,0
2016-08-11T01:08:08.133Z,0
2016-08-11T01:09:08.658Z,0
2016-08-11T01:10:09.311Z,0
2016-08-11T01:11:09.708Z,0
2016-08-11T01:12:10.370Z,0
2016-08-11T01:13:10.747Z,0
2016-08-11T01:14:11.425Z,0
2016-08-11T01:15:11.815Z,0
2016-08-11T01:16:12.481Z,0
2016-08-11T01:17:12.875Z,0
2016-08-11T01:18:13.538Z,0
2016-08-11T01:19:13.964Z,0
2016-08-11T01:20:14.610Z,0
2016-08-11T01:21:15.123Z,0
2016-08-11T01:22:15.648Z,0
2016-08-11T01:23:16.073Z,0
2016-08-11T01:24:16.604Z,0
2016-08-11T01:25:17.269Z,0
2016-08-11T01:26:17.636Z,0
2016-08-11T01:27:18.322Z,0
2016-08-11T01:28:18.712Z,0
2016-08-11T01:29:19.228Z,0
2016-08-11T01:30:19.770Z,0
2016-08-11T01:31:20.432Z,0
2016-08-11T01:32:20.807Z,0
2016-08-11T01:33:21.351Z,0
2016-08-11T01:34:21.883Z,0
2016-08-11T01:35:22.372Z,0
2016-08-11T01:36:22.906Z,0
2016-08-11T01:37:23.603Z,0
2016-08-11T01:38:23.995Z,0
2016-08-11T01:39:24.495Z,0
2016-08-11T01:40:25.019Z,0
2016-08-11T01:41:25.590Z,0
2016-08-11T01:42:26.220Z,0
2016-08-11T01:44:27.277Z,0
2016-08-11T01:45:27.810Z,0
2016-08-11T01:46:28.340Z,0
2016-08-11T01:47:28.745Z,0
2016-08-11T01:48:29.267Z,0
2016-08-11T01:49:29.799Z,0
2016-08-11T01:50:30.330Z,0
2016-08-11T01:51:30.840Z,0
2016-08-11T01:52:31.501Z,0
2016-08-11T01:53:31.888Z,0
2016-08-11T01:54:32.562Z,0
2016-08-11T01:55:32.963Z,0
2016-08-11T01:56:33.495Z,0
2016-08-11T01:57:34.028Z,0
2016-08-11T01:59:35.058Z,0
2016-08-11T02:00:35.760Z,0
2016-08-11T02:01:36.118Z,0
2016-08-11T02:02:36.656Z,0
2016-08-11T02:03:37.210Z,0
2016-08-11T02:04:37.719Z,0
2016-08-11T02:05:38.257Z,0
2016-08-11T02:06:38.908Z,0
2016-08-11T02:07:39.444Z,0
2016-08-11T02:08:39.820Z,0
2016-08-11T02:09:40.526Z,0
2016-08-11T02:10:41.019Z,0
2016-08-11T02:11:41.553Z,0
2016-08-11T02:12:41.946Z,0
2016-08-11T02:13:42.607Z,0
2016-08-11T02:14:42.998Z,0
2016-08-11T02:15:43.510Z,0
2016-08-11T02:16:44.057Z,0
2016-08-11T02:17:44.736Z,0
2016-08-11T02:18:45.114Z,0
2016-08-11T02:19:45.653Z,0
2016-08-11T02:20:46.326Z,0
2016-08-11T02:21:46.828Z,0
2016-08-11T02:22:47.221Z,0
2016-08-11T02:23:47.766Z,0
2016-08-11T02:24:48.281Z,0
2016-08-11T02:25:48.799Z,0
2016-08-11T02:26:49.319Z,0
2016-08-11T02:27:49.865Z,0
2016-08-11T02:28:50.533Z,0
2016-08-11T02:29:51.079Z,0
2016-08-11T02:30:51.467Z,0
2016-08-11T02:31:51.968Z,0
2016-08-11T02:32:52.521Z,0
2016-08-11T02:33:53.022Z,0
2016-08-11T02:34:53.555Z,0
2016-08-11T02:35:54.077Z,0
2016-08-11T02:36:54.634Z,0
2016-08-11T02:37:55.149Z,0
2016-08-11T02:38:55.660Z,0
2016-08-11T02:39:56.189Z,0
2016-08-11T02:40:56.752Z,0
2016-08-11T02:41:57.313Z,0
2016-08-11T02:42:57.805Z,0
2016-08-11T02:43:58.332Z,0
2016-08-11T02:44:58.845Z,0
2016-08-11T02:45:59.390Z,0
2016-08-11T02:46:59.914Z,0
2016-08-11T02:48:00.441Z,0
2016-08-11T02:49:01.090Z,0
2016-08-11T02:50:01.469Z,0
2016-08-11T02:51:02.144Z,0
2016-08-11T02:52:02.532Z,0
2016-08-11T02:53:03.054Z,0
2016-08-11T02:54:03.753Z,0
2016-08-11T02:55:04.145Z,0
2016-08-11T02:56:04.791Z,0
2016-08-11T02:57:05.180Z,0
2016-08-11T02:58:05.703Z,0
2016-08-11T02:59:06.236Z,0
2016-08-11T03:00:06.765Z,0
2016-08-11T03:01:07.309Z,0
2016-08-11T03:02:07.959Z,0
2016-08-11T03:03:08.362Z,0
2016-08-11T03:04:09.033Z,0
2016-08-11T03:05:09.425Z,0
2016-08-11T03:06:10.083Z,0
2016-08-11T03:07:10.460Z,0
2016-08-11T03:08:11.003Z,0
2016-08-11T03:09:11.557Z,0
2016-08-11T03:10:12.046Z,0
2016-08-11T03:11:12.701Z,0
2016-08-11T03:12:13.077Z,0
2016-08-11T03:13:13.771Z,0
2016-08-11T03:14:14.163Z,1
2016-08-11T03:15:14.818Z,1
2016-08-11T03:16:15.208Z,1
2016-08-11T03:17:15.734Z,1
2016-08-11T03:18:16.292Z,1
2016-08-11T03:19:16.836Z,1
2016-08-11T03:20:17.330Z,2
2016-08-11T03:21:17.885Z,2
2016-08-11T03:22:18.551Z,2
2016-08-11T03:23:18.918Z,2
2016-08-11T03:24:19.441Z,3
2016-08-11T03:25:20.107Z,3
2016-08-11T03:26:20.495Z,4
2016-08-11T03:27:21.162Z,4
2016-08-11T03:28:21.735Z,5
2016-08-11T03:29:22.103Z,6
2016-08-11T03:30:22.751Z,7
2016-08-11T03:31:23.153Z,9
2016-08-11T03:32:23.665Z,10
2016-08-11T03:33:24.333Z,12
2016-08-11T03:34:24.720Z,14
2016-08-11T03:35:25.280Z,17
2016-08-11T03:36:25.808Z,19
2016-08-11T03:37:26.340Z,22
2016-08-11T03:38:26.983Z,26
2016-08-11T03:39:27.403Z,30
2016-08-11T03:40:27.881Z,34
2016-08-11T03:41:28.436Z,39
2016-08-11T03:42:28.961Z,46
2016-08-11T03:43:29.490Z,54
2016-08-11T03:44:30.006Z,62
2016-08-11T03:45:30.559Z,71
2016-08-11T03:46:31.210Z,84
2016-08-11T03:47:31.729Z,97
2016-08-11T03:48:32.172Z,112
2016-08-11T03:49:32.783Z,131
2016-08-11T03:50:33.192Z,153
2016-08-11T03:51:33.727Z,175
2016-08-11T03:52:34.229Z,198
2016-08-11T03:53:34.786Z,224
2016-08-11T03:54:35.295Z,251
2016-08-11T03:55:35.848Z,279
2016-08-11T03:56:36.513Z,308
2016-08-11T03:57:36.893Z,340
2016-08-11T03:58:37.405Z,371
2016-08-11T03:59:37.960Z,405
2016-08-11T04:00:38.638Z,439
2016-08-11T04:01:39.124Z,474
2016-08-11T04:02:39.679Z,510
2016-08-11T04:03:40.178Z,549
2016-08-11T04:04:40.568Z,587
2016-08-11T04:05:41.095Z,626
2016-08-11T04:06:41.629Z,665
2016-08-11T04:07:42.291Z,705
2016-08-11T04:08:42.824Z,747
2016-08-11T04:09:43.233Z,785
2016-08-11T04:10:43.744Z,794
2016-08-11T04:11:44.409Z,863
2016-08-11T04:12:44.935Z,928
2016-08-11T04:13:45.487Z,984
2016-08-11T04:14:45.901Z,999
2016-08-11T04:15:46.375Z,999
2016-08-11T04:16:46.929Z,999
2016-08-11T04:17:47.448Z,999
2016-08-11T04:18:47.949Z,999
2016-08-11T04:19:48.486Z,999
2016-08-11T04:20:49.005Z,999
2016-08-11T04:21:49.679Z,999
2016-08-11T04:22:50.103Z,999
2016-08-11T04:23:50.601Z,999
2016-08-11T04:24:51.135Z,999
2016-08-11T04:25:51.814Z,999
2016-08-11T04:26:52.212Z,999
2016-08-11T04:27:52.701Z,999
2016-08-11T04:28:53.244Z,999
2016-08-11T04:29:53.766Z,999
2016-08-11T04:30:54.452Z,999
2016-08-11T04:31:54.846Z,999
2016-08-11T04:32:55.361Z,999
2016-08-11T04:33:56.027Z,999
2016-08-11T04:34:56.455Z,999
2016-08-11T04:35:56.970Z,999
2016-08-11T04:36:57.496Z,999
2016-08-11T04:37:57.996Z,999
2016-08-11T04:38:58.537Z,999
2016-08-11T04:39:59.196Z,999
2016-08-11T04:40:59.582Z,999
2016-08-11T04:42:00.124Z,999
2016-08-11T04:43:00.631Z,999
2016-08-11T04:44:01.328Z,999
2016-08-11T04:45:01.721Z,999
2016-08-11T04:46:02.374Z,999
2016-08-11T04:47:02.804Z,999
2016-08-11T04:48:03.445Z,999
2016-08-11T04:49:03.961Z,999
2016-08-11T04:50:04.479Z,999
2016-08-11T04:51:04.880Z,999
2016-08-11T04:52:05.388Z,999
2016-08-11T04:53:05.961Z,999
2016-08-11T04:54:06.456Z,999
2016-08-11T04:55:06.971Z,999
2016-08-11T04:56:07.662Z,999
2016-08-11T04:57:08.202Z,999
2016-08-11T04:58:08.564Z,999
2016-08-11T04:59:09.095Z,999
2016-08-11T05:00:09.617Z,999
2016-08-11T05:01:10.303Z,999
2016-08-11T05:02:10.674Z,999
2016-08-11T05:03:11.215Z,999
2016-08-11T05:04:11.731Z,999
2016-08-11T05:05:12.266Z,999
2016-08-11T05:06:12.929Z,999
2016-08-11T05:07:13.487Z,999
2016-08-11T05:08:13.853Z,999
2016-08-11T05:09:14.542Z,999
2016-08-11T05:10:14.927Z,999
2016-08-11T05:11:15.439Z,999
2016-08-11T05:12:16.103Z,999
2016-08-11T05:13:16.510Z,999
2016-08-11T05:14:17.158Z,999
2016-08-11T05:15:17.691Z,999
2016-08-11T05:16:18.213Z,999
2016-08-11T05:17:18.613Z,999
2016-08-11T05:18:19.134Z,999
2016-08-11T05:19:19.646Z,999
2016-08-11T05:20:20.206Z,999
2016-08-11T05:21:20.858Z,999
2016-08-11T05:22:21.395Z,999
2016-08-11T05:23:21.915Z,999
2016-08-11T05:24:22.462Z,999
2016-08-11T05:25:22.979Z,999
2016-08-11T05:26:23.391Z,999
2016-08-11T05:27:24.030Z,999
2016-08-11T05:28:24.428Z,999
2016-08-11T05:29:25.264Z,999
2016-08-11T05:30:25.460Z,999
2016-08-11T05:31:25.994Z,999
2016-08-11T05:32:26.674Z,999
2016-08-11T05:33:27.070Z,999
2016-08-11T05:34:27.715Z,999
2016-08-11T05:35:28.272Z,999
2016-08-11T05:36:28.657Z,999
2016-08-11T05:37:29.158Z,999
2016-08-11T05:38:29.694Z,999
2016-08-11T05:39:30.218Z,999
2016-08-11T05:40:30.758Z,999
2016-08-11T05:41:31.282Z,999
2016-08-11T05:42:31.801Z,999
2016-08-11T05:43:32.343Z,999
2016-08-11T05:44:32.918Z,999
2016-08-11T05:45:33.464Z,999
2016-08-11T05:46:33.982Z,999
2016-08-11T05:47:34.676Z,999
2016-08-11T05:48:35.067Z,999
2016-08-11T05:49:35.763Z,999
2016-08-11T05:50:36.289Z,999
2016-08-11T05:51:36.836Z,999
2016-08-11T05:52:37.353Z,999
2016-08-11T05:53:38.007Z,999
2016-08-11T05:54:38.408Z,999
2016-08-11T06:54:11.248Z,999
2016-08-11T07:03:16.036Z,999
2016-08-11T07:29:31.136Z,999
2016-08-11T10:27:02.712Z,999
2016-08-11T14:29:10.564Z,999
2016-08-11T14:35:13.843Z,999
2016-08-11T14:41:16.888Z,999
2016-08-11T14:47:20.083Z,999
2016-08-11T14:52:27.141Z,999
2016-08-11T14:53:32.013Z,999
2016-08-11T14:54:33.004Z,999
2016-08-11T14:55:33.392Z,999
2016-08-11T14:56:33.744Z,999
2016-08-11T14:57:34.159Z,999
2016-08-11T14:58:34.806Z,999
2016-08-11T14:59:35.531Z,999
2016-08-11T15:09:31.934Z,999
2016-08-11T15:10:41.054Z,999
2016-08-11T15:11:41.578Z,999
2016-08-11T15:12:42.082Z,999
2016-08-11T15:13:42.785Z,999
2016-08-11T15:14:43.339Z,999
2016-08-11T15:15:44.113Z,999
2016-08-11T15:17:44.732Z,999
2016-08-11T15:18:45.426Z,999
2016-08-11T15:19:45.925Z,999
2016-08-11T15:20:46.356Z,999
2016-08-11T15:21:47.283Z,999
2016-08-11T15:22:47.502Z,999
2016-08-11T15:23:48.042Z,999
2016-08-11T15:24:48.419Z,999
2016-08-11T15:25:49.150Z,999
2016-08-11T15:26:49.650Z,999
2016-08-11T15:27:50.352Z,999
2016-08-11T15:28:50.667Z,999
2016-08-11T15:29:51.067Z,999
2016-08-11T15:31:43.541Z,999
2016-08-11T15:32:52.630Z,999
2016-08-11T15:33:53.162Z,999
2016-08-11T15:34:53.847Z,999
2016-08-11T15:35:54.535Z,999
2016-08-11T15:36:54.904Z,999
2016-08-11T15:37:55.729Z,999
2016-08-11T15:38:56.009Z,999
2016-08-11T15:39:56.360Z,999
2016-08-11T15:40:56.868Z,999
2016-08-11T15:41:57.695Z,999
2016-08-11T15:42:58.101Z,999
2016-08-11T15:43:58.470Z,999
2016-08-11T15:44:59.155Z,999
2016-08-11T15:47:00.180Z,999
2016-08-11T15:48:00.567Z,999
2016-08-11T15:49:01.245Z,999
2016-08-11T15:50:01.934Z,999
2016-08-11T15:51:02.450Z,999
2016-08-11T15:52:02.852Z,999
2016-08-11T15:53:03.349Z,999
2016-08-11T15:54:03.907Z,999
2016-08-11T15:55:04.556Z,999
2016-08-11T15:56:04.807Z,999
2016-08-11T15:57:05.316Z,999
2016-08-11T15:58:06.145Z,999
2016-08-11T15:59:06.361Z,999
2016-08-11T16:00:07.070Z,999
2016-08-11T16:02:08.238Z,999
2016-08-11T16:03:08.641Z,999
2016-08-11T16:04:08.994Z,999
2016-08-11T16:05:09.669Z,999
2016-08-11T16:06:10.204Z,999
2016-08-11T16:07:10.754Z,999
2016-08-11T16:08:11.266Z,999
2016-08-11T16:09:11.796Z,999
2016-08-11T16:10:12.317Z,999
2016-08-11T16:11:12.687Z,999
2016-08-11T16:12:13.384Z,999
2016-08-11T16:13:13.892Z,999
2016-08-11T16:14:14.290Z,999
2016-08-11T16:15:14.957Z,999
2016-08-11T16:16:15.398Z,999
2016-08-11T16:17:16.042Z,999
2016-08-11T16:18:16.432Z,999
2016-08-11T16:19:16.980Z,999
2016-08-11T16:20:17.676Z,999
2016-08-11T16:21:18.066Z,999
2016-08-11T16:22:18.763Z,999
2016-08-11T16:23:19.152Z,999
2016-08-11T16:24:19.842Z,999
2016-08-11T16:25:20.234Z,999
2016-08-11T16:26:20.775Z,999
2016-08-11T16:27:21.317Z,999
2016-08-11T16:28:21.865Z,999
2016-08-11T16:29:22.401Z,999
2016-08-11T16:30:22.943Z,999
2016-08-11T16:31:23.490Z,999
2016-08-11T16:32:25.678Z,999
2016-08-11T16:33:24.571Z,999
2016-08-11T16:34:25.135Z,999
2016-08-11T16:35:25.814Z,999
2016-08-11T16:36:26.194Z,999
2016-08-11T16:37:26.737Z,999
2016-08-11T16:38:27.279Z,999
2016-08-11T16:39:27.838Z,999
2016-08-11T16:40:28.364Z,999
2016-08-11T16:41:28.909Z,999
2016-08-11T16:42:29.446Z,999
2016-08-11T16:43:29.992Z,999
2016-08-11T16:44:30.685Z,999
2016-08-11T16:45:31.379Z,999
2016-08-11T16:46:31.617Z,999
2016-08-11T16:47:32.311Z,999
2016-08-11T16:48:32.710Z,999
2016-08-11T16:49:33.280Z,999
2016-08-11T16:50:33.798Z,999
2016-08-11T16:51:34.348Z,999
2016-08-11T16:52:34.906Z,999
2016-08-11T16:53:35.427Z,999
2016-08-11T16:54:35.965Z,999
2016-08-11T16:55:36.510Z,999
2016-08-11T16:56:37.053Z,999
2016-08-11T16:57:37.594Z,999
2016-08-11T16:58:38.136Z,999
2016-08-11T16:59:38.829Z,999
2016-08-11T17:00:39.211Z,999
2016-08-11T17:01:40.055Z,999
2016-08-11T17:02:40.306Z,999
2016-08-11T17:03:40.836Z,999
2016-08-11T17:04:41.377Z,999
2016-08-11T17:05:41.952Z,999
2016-08-11T17:06:42.470Z,999
2016-08-11T17:07:43.161Z,999
2016-08-11T17:08:43.695Z,999
2016-08-11T17:09:44.234Z,999
2016-08-11T17:10:44.634Z,999
2016-08-11T17:11:45.195Z,999
2016-08-11T17:12:45.714Z,999
2016-08-11T17:13:46.407Z,999
2016-08-11T17:14:46.795Z,999
2016-08-11T17:15:47.491Z,999
2016-08-11T17:16:47.891Z,999
2016-08-11T17:17:48.442Z,999
2016-08-11T17:18:49.127Z,999
2016-08-11T17:19:49.654Z,999
2016-08-11T17:20:50.076Z,999
2016-08-11T17:21:50.589Z,999
2016-08-11T17:22:51.283Z,999
2016-08-11T17:23:51.676Z,999
2016-08-11T17:24:52.405Z,999
2016-08-11T17:25:52.784Z,999
2016-08-11T17:26:53.303Z,999
2016-08-11T17:27:54.001Z,999
2016-08-11T17:28:54.396Z,999
2016-08-11T17:29:55.107Z,999
2016-08-11T17:30:55.493Z,999
2016-08-11T17:31:56.032Z,999
2016-08-11T17:32:56.569Z,999
2016-08-11T17:33:57.258Z,999
2016-08-11T17:34:57.651Z,999
2016-08-11T17:35:58.195Z,999
2016-08-11T17:36:58.737Z,999
2016-08-11T17:37:59.278Z,999
2016-08-11T17:38:59.816Z,999
2016-08-11T17:40:00.371Z,999
2016-08-11T17:41:00.910Z,999
2016-08-11T17:42:01.595Z,999
2016-08-11T17:43:01.982Z,999
2016-08-11T17:44:02.526Z,999
2016-08-11T17:45:03.066Z,999
2016-08-11T17:46:03.757Z,999
2016-08-11T17:47:04.165Z,999
2016-08-11T17:48:04.842Z,999
2016-08-11T17:49:05.287Z,999
2016-08-11T17:50:05.776Z,999
2016-08-11T17:51:06.316Z,999
2016-08-11T17:52:06.861Z,953
2016-08-11T17:53:07.406Z,925
2016-08-11T17:54:07.944Z,947
2016-08-11T17:55:08.482Z,977
2016-08-11T17:56:09.025Z,999
2016-08-11T17:57:09.570Z,999
2016-08-11T17:58:10.110Z,999
2016-08-11T17:59:10.658Z,953
2016-08-11T18:00:11.345Z,878
2016-08-11T18:01:11.739Z,854
2016-08-11T18:03:12.828Z,813
2016-08-11T18:04:13.505Z,753
2016-08-11T18:05:14.055Z,704
2016-08-11T18:06:14.601Z,684
2016-08-11T18:07:14.998Z,671
2016-08-11T18:08:15.691Z,670
2016-08-11T18:09:16.083Z,688
2016-08-11T18:10:16.625Z,694
2016-08-11T18:11:17.164Z,670
2016-08-11T18:12:17.710Z,633
2016-08-11T18:13:18.250Z,598
2016-08-11T18:14:18.942Z,564
2016-08-11T18:15:19.334Z,538
2016-08-11T18:16:19.880Z,530
2016-08-11T18:18:20.987Z,550
2016-08-11T18:19:21.499Z,570
2016-08-11T18:20:22.042Z,594
2016-08-11T18:21:22.588Z,601
2016-08-11T18:22:23.130Z,585
2016-08-11T18:24:24.524Z,521
2016-08-11T18:25:24.725Z,509
2016-08-11T18:26:25.256Z,498
2016-08-11T18:27:25.793Z,480
2016-08-11T18:28:26.330Z,456
2016-08-11T18:29:26.876Z,431
2016-08-11T18:30:27.416Z,410
2016-08-11T18:32:24.167Z,394
2016-08-11T18:33:29.048Z,380
2016-08-11T18:34:29.586Z,363
2016-08-11T18:35:30.143Z,339
2016-08-11T18:36:30.710Z,296
2016-08-11T18:37:50.282Z,283.00
2016-08-11T18:38:51.102Z,260.00
2016-08-11T18:39:51.510Z,244.00
2016-08-11T18:40:52.166Z,227.00
2016-08-11T18:41:52.555Z,185.00
2016-08-11T18:42:52.964Z,168.00
2016-08-11T18:43:53.665Z,148.00
2016-08-11T18:44:54.004Z,120.00
2016-08-11T18:45:54.551Z,96.00
2016-08-11T18:46:55.098Z,85.00
2016-08-11T18:47:55.633Z,77.00
2016-08-11T18:48:56.178Z,68.00
2016-08-11T18:49:56.722Z,59.00
2016-08-11T18:50:57.264Z,53.00
2016-08-11T18:51:57.799Z,45.00
2016-08-11T18:52:58.338Z,37.00
2016-08-11T18:53:58.884Z,32.00
2016-08-11T18:54:59.427Z,29.00
2016-08-11T18:55:59.960Z,28.00
2016-08-11T18:57:00.511Z,25.00
2016-08-11T18:58:01.051Z,23.00
2016-08-11T18:59:01.597Z,22.00
2016-08-11T19:00:02.128Z,20.00
2016-08-11T19:01:02.674Z,19.00
2016-08-11T19:02:03.210Z,18.00
2016-08-11T19:03:03.903Z,16.00
2016-08-11T19:04:04.295Z,15.00
2016-08-11T19:05:04.839Z,13.00
2016-08-11T19:06:05.377Z,11.00
2016-08-11T19:07:05.974Z,10.00
2016-08-11T19:08:06.457Z,8.00
2016-08-11T19:09:06.997Z,8.00
2016-08-11T19:10:07.537Z,6.00
2016-08-11T19:11:08.087Z,6.00
2016-08-11T19:12:08.623Z,5.00
2016-08-11T19:13:09.317Z,4.00
2016-08-11T19:14:09.707Z,4.00
2016-08-11T19:15:10.244Z,3.00
2016-08-11T19:16:10.789Z,3.00
2016-08-11T19:17:11.326Z,2.00
2016-08-11T19:18:11.872Z,2.00
2016-08-11T19:19:12.414Z,2.00
2016-08-11T19:20:12.965Z,2.00
2016-08-11T19:21:13.514Z,2.00
2016-08-11T19:22:14.048Z,1.00
2016-08-11T19:23:14.584Z,1.00
2016-08-11T19:24:15.129Z,1.00
2016-08-11T19:25:15.666Z,1.00
2016-08-11T19:26:16.226Z,1.00
2016-08-11T19:27:16.752Z,1.00
2016-08-11T19:28:17.299Z,1.00
2016-08-11T19:29:17.852Z,1.00
2016-08-11T19:30:18.383Z,0.00
2016-08-11T19:31:18.927Z,0.00
2016-08-11T19:32:19.465Z,0.00
2016-08-11T19:33:20.009Z,0.00
2016-08-11T19:34:20.564Z,0.00
2016-08-11T19:35:21.273Z,0.00
2016-08-11T19:36:21.650Z,0.00
2016-08-11T19:37:22.188Z,0.00
2016-08-11T19:38:22.889Z,0.00
2016-08-11T19:39:23.282Z,0.00
2016-08-11T19:40:23.822Z,0.00
2016-08-11T19:41:24.365Z,0.00
2016-08-11T19:42:24.903Z,0.00
2016-08-11T19:43:25.447Z,0.00
2016-08-11T19:44:25.989Z,0.00
2016-08-11T19:45:26.547Z,0.00
2016-08-11T19:46:27.073Z,0.00
2016-08-11T19:47:27.620Z,0.00
2016-08-11T19:48:28.312Z,0.00
2016-08-11T19:49:28.694Z,0.00
2016-08-11T19:50:29.984Z,0.00
2016-08-11T19:51:29.773Z,0.00
2016-08-11T19:52:30.320Z,0.00
2016-08-11T19:53:30.861Z,0.00
2016-08-11T19:54:31.421Z,0.00
2016-08-11T19:55:31.949Z,0.00
2016-08-11T19:56:32.499Z,0.00
2016-08-11T19:57:33.044Z,0.00
2016-08-11T19:58:33.736Z,0.00
2016-08-11T19:59:34.139Z,0.00
2016-08-11T20:00:34.690Z,0.00
2016-08-11T20:01:35.222Z,0.00
2016-08-11T20:03:36.311Z,0.00
2016-08-11T20:04:36.874Z,0.00
2016-08-11T20:05:37.405Z,0.00
2016-08-11T20:06:37.940Z,0.00
2016-08-11T20:07:38.483Z,0.00
2016-08-11T20:08:39.021Z,0.00
2016-08-11T20:09:39.566Z,0.00
2016-08-11T20:10:40.109Z,0.00
2016-08-11T20:11:40.648Z,0.00
2016-08-11T20:12:41.193Z,0.00
2016-08-11T20:13:41.762Z,0.00
2016-08-11T20:14:42.280Z,0.00
2016-08-11T20:15:42.826Z,0.00
2016-08-11T20:16:43.365Z,0.00
2016-08-11T20:18:44.451Z,0.00
2016-08-11T20:19:44.997Z,0.00
2016-08-11T20:20:45.536Z,0.00
2016-08-11T20:21:46.252Z,0.00
2016-08-11T20:22:46.632Z,0.00
2016-08-11T20:23:47.162Z,0.00
2016-08-11T20:24:47.707Z,0.00
2016-08-11T20:25:48.400Z,0.00
2016-08-11T20:26:48.794Z,0.00
2016-08-11T20:27:49.340Z,0.00
2016-08-11T20:28:49.879Z,0.00
2016-08-11T20:29:50.426Z,0.00
2016-08-11T20:30:50.967Z,0.00
2016-08-11T20:31:51.519Z,1.00
2016-08-11T20:33:52.758Z,0.00
2016-08-11T20:34:53.154Z,0.00
2016-08-11T20:35:53.702Z,0.00
2016-08-11T20:36:54.233Z,0.00
2016-08-11T20:37:54.779Z,0.00
2016-08-11T20:38:55.318Z,0.00
2016-08-11T20:39:55.863Z,0.00
2016-08-11T20:40:56.401Z,0.00
2016-08-11T20:41:57.090Z,0.00
2016-08-11T20:42:57.483Z,0.00
2016-08-11T20:43:58.024Z,0.00
2016-08-11T20:44:58.710Z,0.00
2016-08-11T20:45:59.124Z,0.00
2016-08-11T20:47:51.477Z,0.00
2016-08-11T20:49:00.730Z,0.00
2016-08-11T20:50:01.425Z,0.00
2016-08-11T20:51:01.842Z,0.00
2016-08-11T20:52:02.360Z,0.00
2016-08-11T20:53:02.898Z,0.00
2016-08-11T20:54:03.438Z,0.00
2016-08-11T20:55:03.982Z,0.00
2016-08-11T20:56:04.526Z,0.00
2016-08-11T20:57:05.073Z,0.00
2016-08-11T20:58:05.612Z,0.00
2016-08-11T20:59:06.296Z,0.00
2016-08-11T21:00:06.688Z,0.00
2016-08-11T21:01:07.257Z,0.00
2016-08-11T21:02:07.779Z,0.00
2016-08-11T21:04:08.854Z,0.00
2016-08-11T21:05:09.563Z,0.00
2016-08-11T21:06:09.945Z,0.00
2016-08-11T21:07:10.480Z,0.00
2016-08-11T21:08:11.018Z,0.00
2016-08-11T21:09:11.564Z,0.00
2016-08-11T21:10:12.111Z,0.00
2016-08-11T21:11:12.652Z,0.00
2016-08-11T21:12:13.218Z,0.00
2016-08-11T21:13:13.749Z,0.00
2016-08-11T21:14:14.303Z,0.00
2016-08-11T21:15:14.834Z,0.00
2016-08-11T21:16:15.372Z,0.00
2016-08-11T21:18:07.749Z,0.00
2016-08-11T21:19:17.000Z,0.00
2016-08-11T21:20:17.691Z,0.00
2016-08-11T21:21:18.082Z,0.00
2016-08-11T21:22:18.616Z,0.00
2016-08-11T21:23:19.305Z,0.00
2016-08-11T21:24:19.859Z,0.00
2016-08-11T21:25:20.241Z,0.00
2016-08-11T21:26:20.790Z,0.00
2016-08-11T21:27:21.328Z,0.00
2016-08-11T21:28:21.875Z,0.00
2016-08-11T21:29:22.413Z,0.00
2016-08-11T21:30:23.106Z,0.00
2016-08-11T21:31:23.515Z,0.00
2016-08-11T21:33:24.583Z,0.00
2016-08-11T21:34:25.118Z,0.00
2016-08-11T21:35:25.664Z,0.00
2016-08-11T21:36:26.203Z,0.00
2016-08-11T21:37:26.748Z,0.00
2016-08-11T21:38:27.287Z,0.00
2016-08-11T21:39:27.832Z,0.00
2016-08-11T21:40:28.400Z,0.00
2016-08-11T21:41:28.917Z,0.00
2016-08-11T21:42:29.459Z,0.00
2016-08-11T21:43:30.001Z,0.00
2016-08-11T21:44:30.546Z,0.00
2016-08-11T21:45:31.094Z,0.00
2016-08-11T21:46:31.934Z,0.00
2016-08-11T21:48:32.718Z,0.00
2016-08-11T21:49:33.267Z,0.00
2016-08-11T21:50:33.840Z,0.00
2016-08-11T21:51:34.357Z,0.00
2016-08-11T21:52:35.048Z,0.00
2016-08-11T21:53:35.438Z,0.00
2016-08-11T21:54:35.978Z,0.00
2016-08-11T21:55:36.524Z,0.00
2016-08-11T21:56:37.063Z,0.00
2016-08-11T21:57:37.608Z,0.00
2016-08-11T21:58:38.158Z,0.00
2016-08-11T21:59:38.840Z,0.00
2016-08-11T22:00:39.229Z,0.00
2016-08-11T22:01:39.810Z,0.00
2016-08-11T22:02:40.320Z,0.00
2016-08-11T22:03:40.858Z,0.00
2016-08-11T22:04:41.403Z,0.00
2016-08-11T22:05:41.945Z,0.00
2016-08-11T22:06:42.495Z,0.00
2016-08-11T22:07:43.024Z,0.00
2016-08-11T22:08:43.569Z,0.00
2016-08-11T22:09:44.128Z,0.00
2016-08-11T22:10:44.659Z,0.00
2016-08-11T22:11:45.212Z,0.00
2016-08-11T22:12:45.733Z,0.00
2016-08-11T22:13:46.272Z,0.00
2016-08-11T22:14:46.965Z,0.00
2016-08-11T22:15:47.355Z,0.00
2016-08-11T22:16:47.907Z,0.00
2016-08-11T22:17:48.442Z,0.00
2016-08-11T22:18:48.991Z,0.00
2016-08-11T22:19:49.529Z,0.00
2016-08-11T22:20:50.073Z,0.00
2016-08-11T22:21:50.610Z,0.00
2016-08-11T22:22:51.156Z,0.00
2016-08-11T22:23:51.695Z,0.00
2016-08-11T22:24:52.245Z,0.00
2016-08-11T22:25:52.787Z,0.00
2016-08-11T22:26:53.336Z,0.00
2016-08-11T22:27:53.898Z,0.00
2016-08-11T22:28:54.587Z,0.00
2016-08-11T22:29:54.957Z,0.00
2016-08-11T22:30:55.501Z,0.00
2016-08-11T22:31:56.041Z,0.00
2016-08-11T22:32:56.590Z,0.00
2016-08-11T22:33:57.125Z,0.00
2016-08-11T22:34:57.663Z,0.00
2016-08-11T22:35:58.208Z,0.00
2016-08-11T22:36:58.771Z,0.00
2016-08-11T22:37:59.291Z,0.00
2016-08-11T22:38:59.841Z,0.00
2016-08-11T22:40:00.372Z,0.00
2016-08-11T22:41:00.911Z,0.00
2016-08-11T22:42:01.633Z,0.00
2016-08-11T22:43:02.002Z,0.00
2016-08-11T22:44:02.539Z,0.00
2016-08-11T22:45:03.088Z,0.00
2016-08-11T22:46:03.627Z,0.00
2016-08-11T22:47:04.177Z,0.00
2016-08-11T22:48:04.714Z,0.00
2016-08-11T22:49:05.259Z,0.00
2016-08-11T22:50:05.797Z,0.00
2016-08-11T22:51:06.331Z,0.00
2016-08-11T22:52:06.879Z,0.00
2016-08-11T22:53:07.420Z,0.00
2016-08-11T22:54:07.955Z,0.00
2016-08-11T22:55:08.652Z,0.00
2016-08-11T22:56:09.077Z,0.00
2016-08-11T22:57:09.589Z,0.00
2016-08-11T22:58:10.127Z,0.00
2016-08-11T22:59:10.664Z,0.00
2016-08-11T23:00:11.211Z,0.00
2016-08-11T23:01:11.752Z,0.00
2016-08-11T23:02:12.303Z,0.00
2016-08-11T23:03:13.000Z,0.00
2016-08-11T23:04:13.394Z,0.00
2016-08-11T23:05:13.959Z,0.00
2016-08-11T23:06:14.627Z,0.00
2016-08-11T23:07:15.027Z,0.00
2016-08-11T23:08:15.563Z,0.00
2016-08-11T23:09:16.108Z,0.00
2016-08-11T23:10:16.795Z,0.00
2016-08-11T23:11:17.194Z,0.00
2016-08-11T23:12:17.735Z,0.00
2016-08-11T23:13:18.281Z,0.00
2016-08-11T23:14:18.977Z,0.00
2016-08-11T23:15:19.374Z,0.00